createdAt,value
2018-12-14T00:01:48.586Z,2.20
2018-12-14T00:04:18.362Z,2.20
2018-12-14T00:06:47.829Z,2.20
2018-12-14T00:09:16.932Z,2.20
2018-12-14T00:11:46.004Z,2.10
2018-12-14T00:14:15.061Z,2.10
2018-12-14T00:16:44.135Z,2.20
2018-12-14T00:19:14.075Z,2.10
2018-12-14T00:21:43.175Z,2.10
2018-12-14T00:24:13.324Z,2.10
2018-12-14T00:26:42.824Z,2.10
2018-12-14T00:29:11.908Z,2.10
2018-12-14T00:31:41.001Z,2.10
2018-12-14T00:34:10.493Z,2.10
2018-12-14T00:36:40.019Z,2.10
2018-12-14T00:39:09.109Z,2.10
2018-12-14T00:41:38.227Z,2.10
2018-12-14T00:44:07.258Z,2.00
2018-12-14T00:46:38.203Z,2.10
2018-12-14T00:49:07.793Z,2.10
2018-12-14T00:51:37.604Z,2.00
2018-12-14T00:54:07.115Z,2.00
2018-12-14T00:56:36.158Z,2.00
2018-12-14T00:59:05.663Z,2.00
2018-12-14T01:01:35.119Z,2.00
2018-12-14T01:04:04.204Z,2.00
2018-12-14T01:06:33.840Z,2.00
2018-12-14T01:09:04.764Z,2.00
2018-12-14T01:11:33.837Z,2.00
2018-12-14T01:14:04.522Z,2.00
2018-12-14T01:16:33.644Z,2.00
2018-12-14T01:19:03.025Z,2.00
2018-12-14T01:21:32.118Z,2.00
2018-12-14T01:24:01.236Z,1.90
2018-12-14T01:26:30.547Z,1.90
2018-12-14T01:28:59.619Z,1.90
2018-12-14T01:31:28.675Z,1.90
2018-12-14T01:33:58.132Z,1.90
2018-12-14T01:36:27.224Z,1.90
2018-12-14T01:38:56.251Z,1.90
2018-12-14T01:41:25.421Z,1.80
2018-12-14T01:43:54.489Z,1.80
2018-12-14T01:46:23.692Z,1.80
2018-12-14T01:48:53.059Z,1.80
2018-12-14T01:51:22.115Z,1.90
2018-12-14T01:53:51.180Z,1.80
2018-12-14T01:56:20.276Z,1.80
2018-12-14T01:58:50.072Z,1.80
2018-12-14T02:01:19.153Z,1.70
2018-12-14T02:03:48.316Z,1.80
2018-12-14T02:06:17.933Z,1.70
2018-12-14T02:08:46.992Z,1.70
2018-12-14T02:11:16.456Z,1.70
2018-12-14T02:13:45.531Z,1.70
2018-12-14T02:16:14.584Z,1.80
2018-12-14T02:18:43.769Z,1.80
2018-12-14T02:21:13.343Z,1.80
2018-12-14T02:23:42.421Z,1.80
2018-12-14T02:26:11.476Z,1.70
2018-12-14T02:28:41.220Z,1.70
2018-12-14T02:31:10.605Z,1.60
2018-12-14T02:33:40.028Z,1.60
2018-12-14T02:36:09.147Z,1.70
2018-12-14T02:38:38.237Z,1.60
2018-12-14T02:41:07.328Z,1.60
2018-12-14T02:43:36.704Z,1.60
2018-12-14T02:46:06.124Z,1.50
2018-12-14T02:48:35.191Z,1.60
2018-12-14T02:51:04.279Z,1.50
2018-12-14T02:53:33.314Z,1.50
2018-12-14T02:56:02.370Z,1.50
2018-12-14T02:58:31.436Z,1.40
2018-12-14T03:01:00.741Z,1.50
2018-12-14T03:03:30.673Z,1.50
2018-12-14T03:06:05.807Z,1.50
2018-12-14T03:08:34.975Z,1.50
2018-12-14T03:11:04.099Z,1.50
2018-12-14T03:13:33.955Z,1.50
2018-12-14T03:16:02.984Z,1.50
2018-12-14T03:18:32.149Z,1.50
2018-12-14T03:21:01.572Z,1.60
2018-12-14T03:23:30.676Z,1.60
2018-12-14T03:25:59.751Z,1.60
2018-12-14T03:28:30.289Z,1.60
2018-12-14T03:30:59.341Z,1.50
2018-12-14T03:33:28.498Z,1.60
2018-12-14T03:35:57.516Z,1.60
2018-12-14T03:38:27.423Z,1.50
2018-12-14T03:40:56.447Z,1.50
2018-12-14T03:43:25.546Z,1.50
2018-12-14T03:45:54.598Z,1.50
2018-12-14T03:48:24.192Z,1.50
2018-12-14T03:50:53.367Z,1.50
2018-12-14T03:53:22.413Z,1.50
2018-12-14T03:55:51.533Z,1.50
2018-12-14T03:58:21.290Z,1.40
2018-12-14T04:00:50.658Z,1.40
2018-12-14T04:03:19.686Z,1.40
2018-12-14T04:05:48.925Z,1.50
2018-12-14T04:08:18.136Z,1.40
2018-12-14T04:10:47.212Z,1.40
2018-12-14T04:13:16.280Z,1.40
2018-12-14T04:15:45.364Z,1.40
2018-12-14T04:18:14.758Z,1.30
2018-12-14T04:20:44.218Z,1.30
2018-12-14T04:23:13.290Z,1.30
2018-12-14T04:25:42.516Z,1.30
2018-12-14T04:28:11.589Z,1.30
2018-12-14T04:30:40.637Z,1.30
2018-12-14T04:33:09.724Z,1.30
2018-12-14T04:35:38.790Z,1.30
2018-12-14T04:38:07.883Z,1.20
2018-12-14T04:40:36.990Z,1.20
2018-12-14T04:43:06.451Z,1.20
2018-12-14T04:45:35.511Z,1.10
2018-12-14T04:48:04.565Z,1.20
2018-12-14T04:50:34.344Z,1.20
2018-12-14T04:53:04.250Z,1.20
2018-12-14T04:55:33.303Z,1.20
2018-12-14T04:58:02.777Z,1.20
2018-12-14T05:00:32.369Z,1.20
2018-12-14T05:03:01.783Z,1.20
2018-12-14T05:05:31.468Z,1.20
2018-12-14T05:08:01.045Z,1.20
2018-12-14T05:10:30.676Z,1.30
2018-12-14T05:12:59.731Z,1.30
2018-12-14T05:15:29.831Z,1.20
2018-12-14T05:17:58.852Z,1.20
2018-12-14T05:20:27.956Z,1.30
2018-12-14T05:22:57.035Z,1.30
2018-12-14T05:25:26.065Z,1.40
2018-12-14T05:27:56.436Z,1.40
2018-12-14T05:30:25.843Z,1.40
2018-12-14T05:32:54.978Z,1.30
2018-12-14T05:35:23.996Z,1.30
2018-12-14T05:37:53.140Z,1.30
2018-12-14T05:40:22.162Z,1.30
2018-12-14T05:42:52.071Z,1.30
2018-12-14T05:45:21.324Z,1.30
2018-12-14T05:47:50.381Z,1.30
2018-12-14T05:50:19.537Z,1.40
2018-12-14T05:52:48.592Z,1.40
2018-12-14T05:55:18.120Z,1.40
2018-12-14T05:57:47.223Z,1.40
2018-12-14T06:00:16.624Z,1.40
2018-12-14T06:02:46.715Z,1.40
2018-12-14T06:05:16.081Z,1.40
2018-12-14T06:07:45.170Z,1.50
2018-12-14T06:10:14.451Z,1.40
2018-12-14T06:12:43.496Z,1.50
2018-12-14T06:15:13.010Z,1.40
2018-12-14T06:17:42.536Z,1.40
2018-12-14T06:20:12.050Z,1.40
2018-12-14T06:22:41.100Z,1.50
2018-12-14T06:25:10.530Z,1.40
2018-12-14T06:27:39.958Z,1.50
2018-12-14T06:30:09.006Z,1.50
2018-12-14T06:32:38.076Z,1.50
2018-12-14T06:35:07.532Z,1.50
2018-12-14T06:37:36.617Z,1.40
2018-12-14T06:40:06.433Z,1.50
2018-12-14T06:42:35.722Z,1.50
2018-12-14T06:45:06.367Z,1.50
2018-12-14T06:47:35.494Z,1.50
2018-12-14T06:50:05.215Z,1.40
2018-12-14T06:52:34.706Z,1.50
2018-12-14T06:55:04.605Z,1.50
2018-12-14T06:57:33.669Z,1.50
2018-12-14T07:00:03.003Z,1.50
2018-12-14T07:02:32.034Z,1.50
2018-12-14T07:05:01.294Z,1.40
2018-12-14T07:07:31.153Z,1.50
2018-12-14T07:10:00.260Z,1.50
2018-12-14T07:12:29.376Z,1.40
2018-12-14T07:14:58.863Z,1.40
2018-12-14T07:17:27.879Z,1.40
2018-12-14T07:19:57.377Z,1.40
2018-12-14T07:22:26.460Z,1.40
2018-12-14T07:24:55.524Z,1.50
2018-12-14T07:27:24.636Z,1.50
2018-12-14T07:29:53.659Z,1.40
2018-12-14T07:32:22.739Z,1.50
2018-12-14T07:34:52.187Z,1.50
2018-12-14T07:37:21.316Z,1.50
2018-12-14T07:39:50.639Z,1.50
2018-12-14T07:42:20.141Z,1.50
2018-12-14T07:44:49.300Z,1.50
2018-12-14T07:47:18.975Z,1.50
2018-12-14T07:49:48.078Z,1.50
2018-12-14T07:52:17.108Z,1.50
2018-12-14T07:54:46.244Z,1.60
2018-12-14T07:57:15.338Z,1.60
2018-12-14T07:59:44.447Z,1.60
2018-12-14T08:02:13.504Z,1.60
2018-12-14T08:04:42.831Z,1.50
2018-12-14T08:07:12.223Z,1.50
2018-12-14T08:09:41.312Z,1.60
2018-12-14T08:12:10.380Z,1.60
2018-12-14T08:14:39.487Z,1.60
2018-12-14T08:17:08.512Z,1.60
2018-12-14T08:19:37.623Z,1.60
2018-12-14T08:22:06.685Z,1.60
2018-12-14T08:24:36.026Z,1.70
2018-12-14T08:27:05.596Z,1.70
2018-12-14T08:29:34.644Z,1.70
2018-12-14T08:32:03.733Z,1.70
2018-12-14T08:34:32.775Z,1.70
2018-12-14T08:37:01.898Z,1.60
2018-12-14T08:39:31.081Z,1.70
2018-12-14T08:42:00.323Z,1.80
2018-12-14T08:44:29.427Z,1.80
2018-12-14T08:46:58.988Z,1.80
2018-12-14T08:49:28.052Z,1.80
2018-12-14T08:51:57.151Z,1.80
2018-12-14T08:54:26.199Z,1.80
2018-12-14T08:56:55.290Z,1.90
2018-12-14T08:59:24.302Z,1.90
2018-12-14T09:01:53.367Z,2.00
2018-12-14T09:04:22.911Z,2.00
2018-12-14T09:06:52.644Z,2.00
2018-12-14T09:09:21.755Z,2.10
2018-12-14T09:11:51.249Z,2.00
2018-12-14T09:14:20.921Z,2.00
2018-12-14T09:16:50.372Z,2.00
2018-12-14T09:19:19.648Z,2.10
2018-12-14T09:21:48.705Z,2.10
2018-12-14T09:24:17.767Z,2.20
2018-12-14T09:26:47.422Z,2.20
2018-12-14T09:29:17.388Z,2.10
2018-12-14T09:31:46.511Z,2.10
2018-12-14T09:34:15.866Z,2.10
2018-12-14T09:36:45.646Z,2.10
2018-12-14T09:39:14.847Z,2.10
2018-12-14T09:41:43.891Z,2.10
2018-12-14T09:44:12.952Z,2.10
2018-12-14T09:46:42.073Z,2.20
2018-12-14T09:49:11.177Z,2.30
2018-12-14T09:51:41.128Z,2.20
2018-12-14T09:54:10.463Z,2.10
2018-12-14T09:56:39.552Z,2.10
2018-12-14T09:59:09.005Z,2.10
2018-12-14T10:01:38.067Z,2.20
2018-12-14T10:04:07.238Z,2.20
2018-12-14T10:06:36.386Z,2.20
2018-12-14T10:09:05.884Z,2.20
2018-12-14T10:11:35.768Z,2.20
2018-12-14T10:14:04.885Z,2.10
2018-12-14T10:16:33.955Z,2.20
2018-12-14T10:19:03.202Z,2.30
2018-12-14T10:21:32.341Z,2.40
2018-12-14T10:24:01.375Z,2.50
2018-12-14T10:26:30.413Z,2.60
2018-12-14T10:29:00.367Z,2.60
2018-12-14T10:31:29.465Z,2.60
2018-12-14T10:33:59.301Z,2.70
2018-12-14T10:36:28.355Z,2.80
2018-12-14T10:38:57.493Z,2.90
2018-12-14T10:41:26.880Z,2.80
2018-12-14T10:43:56.355Z,2.80
2018-12-14T10:46:25.740Z,2.90
2018-12-14T10:48:54.803Z,2.90
2018-12-14T10:51:23.929Z,2.90
2018-12-14T10:53:53.005Z,3.00
2018-12-14T10:56:22.611Z,3.00
2018-12-14T10:58:51.664Z,3.10
2018-12-14T11:01:26.391Z,3.00
2018-12-14T11:03:55.419Z,3.10
2018-12-14T11:06:24.839Z,3.00
2018-12-14T11:08:53.978Z,3.00
2018-12-14T11:11:22.999Z,3.00
2018-12-14T11:13:52.030Z,3.00
2018-12-14T11:16:21.132Z,3.00
2018-12-14T11:18:50.395Z,3.00
2018-12-14T11:21:19.452Z,2.90
2018-12-14T11:23:49.128Z,2.90
2018-12-14T11:26:18.208Z,2.90
2018-12-14T11:28:47.302Z,2.90
2018-12-14T11:31:16.360Z,2.90
2018-12-14T11:33:47.135Z,2.90
2018-12-14T11:36:16.294Z,3.00
2018-12-14T11:38:45.350Z,2.90
2018-12-14T11:41:18.416Z,2.90
2018-12-14T11:43:45.475Z,2.90
2018-12-14T11:46:14.903Z,3.00
2018-12-14T11:48:44.691Z,3.00
2018-12-14T11:51:14.795Z,3.00
2018-12-14T11:53:44.228Z,3.00
2018-12-14T11:56:15.619Z,3.00
2018-12-14T11:58:45.130Z,3.10
2018-12-14T12:01:14.637Z,3.00
2018-12-14T12:03:44.059Z,3.00
2018-12-14T12:06:13.154Z,3.00
2018-12-14T12:08:42.172Z,3.00
2018-12-14T12:11:11.228Z,2.90
2018-12-14T12:13:40.708Z,3.00
2018-12-14T12:16:09.819Z,3.00
2018-12-14T12:18:38.873Z,2.90
2018-12-14T12:21:07.899Z,2.90
2018-12-14T12:23:37.355Z,2.90
2018-12-14T12:26:06.415Z,2.80
2018-12-14T12:28:35.783Z,2.80
2018-12-14T12:31:04.856Z,2.70
2018-12-14T12:33:34.295Z,2.70
2018-12-14T12:36:03.398Z,2.70
2018-12-14T12:38:37.926Z,2.60
2018-12-14T12:41:04.382Z,2.70
2018-12-14T12:43:34.246Z,2.70
2018-12-14T12:46:03.308Z,2.70
2018-12-14T12:48:32.937Z,2.70
2018-12-14T12:51:03.249Z,2.70
2018-12-14T12:53:33.151Z,2.60
2018-12-14T12:56:02.191Z,2.60
2018-12-14T12:58:31.223Z,2.60
2018-12-14T13:01:00.481Z,2.60
2018-12-14T13:03:29.931Z,2.60
2018-12-14T13:05:58.972Z,2.50
2018-12-14T13:08:28.500Z,2.50
2018-12-14T13:10:57.579Z,2.40
2018-12-14T13:13:26.642Z,2.40
2018-12-14T13:15:55.690Z,2.50
2018-12-14T13:18:24.754Z,2.50
2018-12-14T13:20:53.900Z,2.40
2018-12-14T13:23:22.996Z,2.40
2018-12-14T13:25:52.131Z,2.40
2018-12-14T13:28:21.728Z,2.40
2018-12-14T13:30:51.120Z,2.30
2018-12-14T13:33:21.004Z,2.20
2018-12-14T13:35:50.316Z,2.20
2018-12-14T13:38:19.358Z,2.10
2018-12-14T13:40:48.498Z,2.10
2018-12-14T13:43:17.629Z,2.10
2018-12-14T13:45:46.691Z,2.10
2018-12-14T13:48:15.985Z,2.10
2018-12-14T13:50:45.891Z,2.10
2018-12-14T13:53:14.992Z,2.00
2018-12-14T13:55:44.460Z,2.10
2018-12-14T13:58:13.910Z,2.10
2018-12-14T14:00:42.972Z,2.10
2018-12-14T14:03:12.075Z,2.00
2018-12-14T14:05:41.141Z,2.00
2018-12-14T14:08:10.229Z,2.00
2018-12-14T14:10:39.290Z,2.10
2018-12-14T14:13:08.390Z,2.10
2018-12-14T14:15:37.473Z,2.00
2018-12-14T14:18:07.202Z,2.00
2018-12-14T14:20:36.260Z,2.00
2018-12-14T14:23:05.751Z,2.00
2018-12-14T14:25:35.071Z,2.10
2018-12-14T14:28:04.264Z,2.20
2018-12-14T14:30:33.310Z,2.10
2018-12-14T14:33:02.905Z,2.10
2018-12-14T14:35:31.972Z,2.20
2018-12-14T14:38:01.391Z,2.20
2018-12-14T14:40:30.511Z,2.20
2018-12-14T14:43:00.124Z,2.20
2018-12-14T14:45:29.143Z,2.30
2018-12-14T14:47:59.514Z,2.20
2018-12-14T14:50:28.566Z,2.10
2018-12-14T14:52:57.798Z,2.10
2018-12-14T14:55:27.757Z,2.10
2018-12-14T14:57:56.847Z,2.10
2018-12-14T15:00:28.624Z,2.10
2018-12-14T15:02:57.945Z,2.10
2018-12-14T15:05:27.000Z,2.10
2018-12-14T15:07:56.710Z,2.10
2018-12-14T15:10:26.659Z,2.10
2018-12-14T15:12:55.962Z,2.20
2018-12-14T15:15:24.983Z,2.30
2018-12-14T15:17:54.097Z,2.20
2018-12-14T15:20:23.653Z,2.20
2018-12-14T15:22:52.737Z,2.20
2018-12-14T15:25:23.017Z,2.20
2018-12-14T15:27:53.307Z,2.30
2018-12-14T15:30:23.155Z,2.30
2018-12-14T15:32:52.978Z,2.20
2018-12-14T15:35:22.190Z,2.20
2018-12-14T15:37:51.650Z,2.20
2018-12-14T15:40:21.504Z,2.20
2018-12-14T15:42:50.568Z,2.20
2018-12-14T15:45:19.815Z,2.20
2018-12-14T15:47:49.725Z,2.10
2018-12-14T15:50:19.704Z,2.20
2018-12-14T15:52:48.772Z,2.10
2018-12-14T15:55:18.289Z,2.00
2018-12-14T15:57:48.662Z,2.00
2018-12-14T16:00:18.148Z,1.90
2018-12-14T16:02:47.390Z,1.90
2018-12-14T16:05:16.588Z,2.00
2018-12-14T16:07:46.536Z,2.00
2018-12-14T16:10:15.673Z,2.00
2018-12-14T16:12:45.310Z,2.00
2018-12-14T16:15:19.921Z,2.00
2018-12-14T16:17:46.235Z,2.00
2018-12-14T16:20:15.445Z,2.00
2018-12-14T16:22:44.506Z,2.00
2018-12-14T16:25:13.623Z,2.00
2018-12-14T16:27:44.116Z,2.00
2018-12-14T16:30:13.355Z,2.00
2018-12-14T16:32:42.793Z,2.00
2018-12-14T16:35:11.961Z,2.00
2018-12-14T16:37:41.921Z,1.90
2018-12-14T16:40:11.155Z,1.90
2018-12-14T16:42:40.924Z,1.90
2018-12-14T16:45:09.979Z,1.90
2018-12-14T16:47:39.167Z,2.00
2018-12-14T16:50:09.112Z,2.00
2018-12-14T16:52:38.230Z,2.00
2018-12-14T16:55:08.705Z,2.10
2018-12-14T16:57:38.394Z,2.00
2018-12-14T17:00:08.853Z,2.00
2018-12-14T17:02:38.781Z,2.00
2018-12-14T17:05:07.814Z,2.00
2018-12-14T17:07:37.633Z,2.00
2018-12-14T17:10:07.060Z,2.00
2018-12-14T17:12:36.284Z,2.00
2018-12-14T17:15:07.284Z,2.00
2018-12-14T17:17:37.170Z,1.90
2018-12-14T17:20:06.219Z,1.90
2018-12-14T17:22:35.258Z,1.90
2018-12-14T17:25:05.815Z,1.90
2018-12-14T17:27:34.854Z,1.80
2018-12-14T17:30:04.292Z,1.80
2018-12-14T17:32:33.369Z,1.80
2018-12-14T17:35:02.899Z,1.80
2018-12-14T17:37:32.193Z,1.90
2018-12-14T17:40:01.247Z,1.90
2018-12-14T17:42:31.149Z,1.80
2018-12-14T17:45:00.694Z,1.80
2018-12-14T17:47:30.138Z,1.80
2018-12-14T17:49:59.152Z,1.90
2018-12-14T17:52:28.293Z,1.90
2018-12-14T17:54:57.347Z,1.90
2018-12-14T17:57:26.465Z,1.90
2018-12-14T17:59:55.557Z,1.90
2018-12-14T18:02:24.688Z,1.90
2018-12-14T18:04:54.164Z,1.90
2018-12-14T18:07:23.668Z,1.80
2018-12-14T18:09:53.541Z,1.80
2018-12-14T18:12:22.942Z,1.90
2018-12-14T18:14:52.054Z,1.80
2018-12-14T18:17:21.227Z,1.80
2018-12-14T18:19:50.591Z,1.80
2018-12-14T18:22:19.673Z,1.70
2018-12-14T18:24:49.166Z,1.70
2018-12-14T18:27:20.094Z,1.70
2018-12-14T18:29:50.637Z,1.70
2018-12-14T18:32:20.759Z,1.70
2018-12-14T18:34:50.615Z,1.70
2018-12-14T18:37:20.097Z,1.70
2018-12-14T18:39:49.995Z,1.70
2018-12-14T18:42:19.208Z,1.70
2018-12-14T18:44:48.421Z,1.70
2018-12-14T18:47:17.495Z,1.80
2018-12-14T18:49:46.967Z,1.80
2018-12-14T18:52:16.923Z,1.80
2018-12-14T18:54:46.809Z,1.80
2018-12-14T18:57:17.084Z,1.80
2018-12-14T18:59:46.114Z,1.70
2018-12-14T19:02:15.647Z,1.70
2018-12-14T19:04:44.795Z,1.80
2018-12-14T19:07:14.252Z,1.70
2018-12-14T19:09:43.360Z,1.70
2018-12-14T19:12:13.256Z,1.70
2018-12-14T19:14:42.896Z,1.70
2018-12-14T19:17:11.937Z,1.70
2018-12-14T19:19:42.539Z,1.70
2018-12-14T19:22:11.602Z,1.70
2018-12-14T19:24:40.732Z,1.70
2018-12-14T19:27:09.810Z,1.80
2018-12-14T19:29:39.137Z,1.80
2018-12-14T19:32:08.371Z,1.70
2018-12-14T19:34:37.424Z,1.70
2018-12-14T19:37:06.892Z,1.70
2018-12-14T19:39:35.997Z,1.70
2018-12-14T19:42:05.211Z,1.70
2018-12-14T19:44:35.327Z,1.60
2018-12-14T19:47:06.854Z,1.60
2018-12-14T19:49:36.139Z,1.60
2018-12-14T19:52:06.049Z,1.70
2018-12-14T19:54:35.680Z,1.60
2018-12-14T19:57:05.121Z,1.70
2018-12-14T19:59:34.885Z,1.70
2018-12-14T20:02:04.497Z,1.70
2018-12-14T20:04:33.527Z,1.70
2018-12-14T20:07:03.030Z,1.70
2018-12-14T20:09:32.138Z,1.70
2018-12-14T20:12:01.634Z,1.70
2018-12-14T20:14:30.655Z,1.70
2018-12-14T20:17:00.435Z,1.70
2018-12-14T20:19:30.100Z,1.70
2018-12-14T20:21:59.680Z,1.70
2018-12-14T20:24:29.207Z,1.70
2018-12-14T20:26:58.685Z,1.70
2018-12-14T20:29:28.359Z,1.80
2018-12-14T20:31:57.445Z,1.70
2018-12-14T20:34:27.036Z,1.60
2018-12-14T20:36:56.123Z,1.60
2018-12-14T20:39:25.541Z,1.60
2018-12-14T20:41:55.620Z,1.60
2018-12-14T20:44:25.393Z,1.60
2018-12-14T20:46:54.428Z,1.60
2018-12-14T20:49:24.046Z,1.60
2018-12-14T20:51:53.482Z,1.60
2018-12-14T20:54:23.377Z,1.60
2018-12-14T20:56:53.342Z,1.60
2018-12-14T20:59:22.567Z,1.60
2018-12-14T21:01:52.328Z,1.60
2018-12-14T21:04:22.350Z,1.60
2018-12-14T21:06:52.332Z,1.60
2018-12-14T21:09:21.696Z,1.60
2018-12-14T21:11:51.134Z,1.50
2018-12-14T21:14:20.615Z,1.50
2018-12-14T21:16:50.226Z,1.60
2018-12-14T21:19:19.424Z,1.60
2018-12-14T21:21:48.496Z,1.50
2018-12-14T21:24:18.267Z,1.50
2018-12-14T21:26:48.140Z,1.50
2018-12-14T21:29:17.629Z,1.40
2018-12-14T21:31:46.718Z,1.50
2018-12-14T21:34:17.029Z,1.50
2018-12-14T21:36:46.263Z,1.50
2018-12-14T21:39:15.378Z,1.50
2018-12-14T21:41:45.198Z,1.50
2018-12-14T21:44:14.787Z,1.40
2018-12-14T21:46:43.852Z,1.50
2018-12-14T21:49:12.919Z,1.50
2018-12-14T21:51:42.243Z,1.60
2018-12-14T21:54:11.694Z,1.50
2018-12-14T21:56:41.578Z,1.50
2018-12-14T21:59:11.550Z,1.50
2018-12-14T22:01:41.317Z,1.50
2018-12-14T22:04:10.638Z,1.50
2018-12-14T22:06:39.724Z,1.40
2018-12-14T22:09:09.020Z,1.50
2018-12-14T22:11:39.315Z,1.50
2018-12-14T22:14:08.472Z,1.50
2018-12-14T22:16:39.311Z,1.50
2018-12-14T22:19:09.433Z,1.50
2018-12-14T22:21:38.488Z,1.40
2018-12-14T22:24:08.264Z,1.40
2018-12-14T22:26:37.439Z,1.50
2018-12-14T22:29:06.984Z,1.50
2018-12-14T22:31:36.084Z,1.50
2018-12-14T22:34:05.632Z,1.50
2018-12-14T22:36:34.695Z,1.40
2018-12-14T22:39:06.344Z,1.40
2018-12-14T22:41:36.098Z,1.30
2018-12-14T22:44:05.255Z,1.30
2018-12-14T22:46:34.408Z,1.30
2018-12-14T22:49:03.585Z,1.30
2018-12-14T22:51:33.979Z,1.30
2018-12-14T22:54:03.104Z,1.30
2018-12-14T22:56:32.309Z,1.20
2018-12-14T22:59:01.526Z,1.20
2018-12-14T23:01:31.011Z,1.20
2018-12-14T23:04:00.184Z,1.30
2018-12-14T23:06:29.368Z,1.30
2018-12-14T23:08:58.474Z,1.30
2018-12-14T23:11:27.831Z,1.30
2018-12-14T23:13:57.697Z,1.40
2018-12-14T23:16:27.295Z,1.30
2018-12-14T23:18:56.376Z,1.30
2018-12-14T23:21:26.123Z,1.40
2018-12-14T23:23:55.182Z,1.50
2018-12-14T23:26:24.838Z,1.40
2018-12-14T23:28:54.470Z,1.40
2018-12-14T23:31:24.105Z,1.40
2018-12-14T23:33:53.474Z,1.30
2018-12-14T23:36:22.550Z,1.30
2018-12-14T23:38:52.480Z,1.20
2018-12-14T23:41:22.676Z,1.20
2018-12-14T23:43:51.730Z,1.30
2018-12-14T23:46:21.096Z,1.30
2018-12-14T23:48:50.499Z,1.20
2018-12-14T23:51:19.610Z,1.30
2018-12-14T23:53:48.664Z,1.30
2018-12-14T23:56:18.242Z,1.30
2018-12-14T23:58:48.535Z,1.20
